sensor_id;sensor_type;location;lat;lon;timestamp;P1;durP1;ratioP1;P2;durP2;ratioP2
18449;SDS011;9354;50.194;7.690;2023-12-28T00:00:32;4.63;;;2.37;;
18449;SDS011;9354;50.194;7.690;2023-12-28T00:02:59;6.40;;;2.77;;
18449;SDS011;9354;50.194;7.690;2023-12-28T00:05:27;4.70;;;2.30;;
18449;SDS011;9354;50.194;7.690;2023-12-28T00:07:56;4.43;;;2.30;;
18449;SDS011;9354;50.194;7.690;2023-12-28T00:10:23;4.87;;;2.70;;
18449;SDS011;9354;50.194;7.690;2023-12-28T00:12:51;5.27;;;2.13;;
18449;SDS011;9354;50.194;7.690;2023-12-28T00:15:18;6.07;;;2.30;;
18449;SDS011;9354;50.194;7.690;2023-12-28T00:17:45;4.20;;;2.43;;
18449;SDS011;9354;50.194;7.690;2023-12-28T00:20:13;3.73;;;2.13;;
18449;SDS011;9354;50.194;7.690;2023-12-28T00:22:40;5.37;;;2.67;;
18449;SDS011;9354;50.194;7.690;2023-12-28T00:25:09;5.37;;;2.47;;
18449;SDS011;9354;50.194;7.690;2023-12-28T00:27:36;6.10;;;2.30;;
18449;SDS011;9354;50.194;7.690;2023-12-28T00:30:04;6.07;;;2.47;;
18449;SDS011;9354;50.194;7.690;2023-12-28T00:32:32;4.00;;;2.20;;
18449;SDS011;9354;50.194;7.690;2023-12-28T00:35:00;3.27;;;1.67;;
18449;SDS011;9354;50.194;7.690;2023-12-28T00:37:27;3.40;;;2.00;;
18449;SDS011;9354;50.194;7.690;2023-12-28T00:39:55;5.83;;;1.90;;
18449;SDS011;9354;50.194;7.690;2023-12-28T00:42:24;3.90;;;2.00;;
18449;SDS011;9354;50.194;7.690;2023-12-28T00:44:51;4.13;;;1.93;;
18449;SDS011;9354;50.194;7.690;2023-12-28T00:47:18;10.47;;;2.17;;
18449;SDS011;9354;50.194;7.690;2023-12-28T00:49:46;4.17;;;2.17;;
18449;SDS011;9354;50.194;7.690;2023-12-28T00:52:13;6.07;;;2.00;;
18449;SDS011;9354;50.194;7.690;2023-12-28T00:54:41;4.00;;;2.00;;
18449;SDS011;9354;50.194;7.690;2023-12-28T00:57:08;6.47;;;2.20;;
18449;SDS011;9354;50.194;7.690;2023-12-28T00:59:37;4.03;;;1.80;;
18449;SDS011;9354;50.194;7.690;2023-12-28T01:02:04;4.63;;;2.00;;
18449;SDS011;9354;50.194;7.690;2023-12-28T01:04:31;4.03;;;2.07;;
18449;SDS011;9354;50.194;7.690;2023-12-28T01:06:59;4.37;;;2.00;;
18449;SDS011;9354;50.194;7.690;2023-12-28T01:09:27;6.70;;;2.30;;
18449;SDS011;9354;50.194;7.690;2023-12-28T01:11:55;2.90;;;2.00;;
18449;SDS011;9354;50.194;7.690;2023-12-28T01:14:22;4.30;;;2.17;;
18449;SDS011;9354;50.194;7.690;2023-12-28T01:16:50;4.80;;;2.23;;
18449;SDS011;9354;50.194;7.690;2023-12-28T01:19:17;6.83;;;2.17;;
18449;SDS011;9354;50.194;7.690;2023-12-28T01:21:45;4.27;;;2.20;;
18449;SDS011;9354;50.194;7.690;2023-12-28T01:24:12;5.87;;;2.10;;
18449;SDS011;9354;50.194;7.690;2023-12-28T01:26:40;5.53;;;2.23;;
18449;SDS011;9354;50.194;7.690;2023-12-28T01:29:07;4.43;;;1.80;;
18449;SDS011;9354;50.194;7.690;2023-12-28T01:31:34;6.17;;;2.27;;
18449;SDS011;9354;50.194;7.690;2023-12-28T01:34:05;6.20;;;1.90;;
18449;SDS011;9354;50.194;7.690;2023-12-28T01:36:34;4.77;;;2.10;;
18449;SDS011;9354;50.194;7.690;2023-12-28T01:39:02;5.40;;;2.30;;
18449;SDS011;9354;50.194;7.690;2023-12-28T01:41:29;5.00;;;2.20;;
18449;SDS011;9354;50.194;7.690;2023-12-28T01:43:57;4.63;;;2.00;;
18449;SDS011;9354;50.194;7.690;2023-12-28T01:46:24;3.73;;;2.17;;
18449;SDS011;9354;50.194;7.690;2023-12-28T01:48:52;4.10;;;2.00;;
18449;SDS011;9354;50.194;7.690;2023-12-28T01:51:21;6.63;;;2.43;;
18449;SDS011;9354;50.194;7.690;2023-12-28T01:53:51;9.93;;;2.93;;
18449;SDS011;9354;50.194;7.690;2023-12-28T01:56:19;5.63;;;2.20;;
18449;SDS011;9354;50.194;7.690;2023-12-28T01:58:47;4.70;;;2.40;;
18449;SDS011;9354;50.194;7.690;2023-12-28T02:01:17;4.50;;;2.23;;
18449;SDS011;9354;50.194;7.690;2023-12-28T02:03:45;7.00;;;2.50;;
18449;SDS011;9354;50.194;7.690;2023-12-28T02:06:13;7.23;;;2.33;;
18449;SDS011;9354;50.194;7.690;2023-12-28T02:08:44;3.57;;;2.07;;
18449;SDS011;9354;50.194;7.690;2023-12-28T02:11:11;5.93;;;2.97;;
18449;SDS011;9354;50.194;7.690;2023-12-28T02:13:39;3.73;;;2.00;;
18449;SDS011;9354;50.194;7.690;2023-12-28T02:16:09;8.03;;;2.30;;
18449;SDS011;9354;50.194;7.690;2023-12-28T02:18:41;5.10;;;2.33;;
18449;SDS011;9354;50.194;7.690;2023-12-28T02:21:11;5.30;;;2.20;;
18449;SDS011;9354;50.194;7.690;2023-12-28T02:23:39;7.17;;;2.30;;
18449;SDS011;9354;50.194;7.690;2023-12-28T02:26:16;3.87;;;2.47;;
18449;SDS011;9354;50.194;7.690;2023-12-28T02:28:43;4.13;;;2.30;;
18449;SDS011;9354;50.194;7.690;2023-12-28T02:31:13;3.67;;;2.23;;
18449;SDS011;9354;50.194;7.690;2023-12-28T02:33:47;5.37;;;2.43;;
18449;SDS011;9354;50.194;7.690;2023-12-28T02:36:22;6.80;;;2.30;;
18449;SDS011;9354;50.194;7.690;2023-12-28T02:38:50;4.10;;;2.10;;
18449;SDS011;9354;50.194;7.690;2023-12-28T02:41:22;4.80;;;2.10;;
18449;SDS011;9354;50.194;7.690;2023-12-28T02:43:51;4.40;;;2.23;;
18449;SDS011;9354;50.194;7.690;2023-12-28T02:46:18;3.77;;;2.00;;
18449;SDS011;9354;50.194;7.690;2023-12-28T02:48:45;6.40;;;2.10;;
18449;SDS011;9354;50.194;7.690;2023-12-28T02:51:13;5.27;;;1.80;;
18449;SDS011;9354;50.194;7.690;2023-12-28T02:53:41;3.83;;;2.07;;
18449;SDS011;9354;50.194;7.690;2023-12-28T02:56:09;4.40;;;1.90;;
18449;SDS011;9354;50.194;7.690;2023-12-28T02:58:38;6.60;;;2.30;;
18449;SDS011;9354;50.194;7.690;2023-12-28T03:01:05;3.63;;;1.73;;
18449;SDS011;9354;50.194;7.690;2023-12-28T03:03:33;4.20;;;2.10;;
18449;SDS011;9354;50.194;7.690;2023-12-28T03:06:00;4.57;;;1.90;;
18449;SDS011;9354;50.194;7.690;2023-12-28T03:08:27;3.63;;;1.70;;
18449;SDS011;9354;50.194;7.690;2023-12-28T03:10:55;2.87;;;1.93;;
18449;SDS011;9354;50.194;7.690;2023-12-28T03:13:22;4.00;;;2.20;;
18449;SDS011;9354;50.194;7.690;2023-12-28T03:15:51;3.43;;;1.70;;
18449;SDS011;9354;50.194;7.690;2023-12-28T03:18:18;4.10;;;1.93;;
18449;SDS011;9354;50.194;7.690;2023-12-28T03:20:46;4.93;;;2.20;;
18449;SDS011;9354;50.194;7.690;2023-12-28T03:23:13;3.00;;;1.80;;
18449;SDS011;9354;50.194;7.690;2023-12-28T03:25:41;4.07;;;2.00;;
18449;SDS011;9354;50.194;7.690;2023-12-28T03:28:08;4.93;;;2.03;;
18449;SDS011;9354;50.194;7.690;2023-12-28T03:30:35;4.23;;;1.83;;
18449;SDS011;9354;50.194;7.690;2023-12-28T03:33:04;6.43;;;3.30;;
18449;SDS011;9354;50.194;7.690;2023-12-28T03:35:32;4.10;;;1.87;;
18449;SDS011;9354;50.194;7.690;2023-12-28T03:37:59;4.07;;;1.90;;
18449;SDS011;9354;50.194;7.690;2023-12-28T03:40:27;2.93;;;1.70;;
18449;SDS011;9354;50.194;7.690;2023-12-28T03:42:54;3.00;;;1.70;;
18449;SDS011;9354;50.194;7.690;2023-12-28T03:45:21;3.70;;;1.77;;
18449;SDS011;9354;50.194;7.690;2023-12-28T03:47:49;3.83;;;2.00;;
18449;SDS011;9354;50.194;7.690;2023-12-28T03:50:18;3.70;;;1.40;;
18449;SDS011;9354;50.194;7.690;2023-12-28T03:52:46;3.60;;;1.90;;
18449;SDS011;9354;50.194;7.690;2023-12-28T03:55:13;3.97;;;1.90;;
18449;SDS011;9354;50.194;7.690;2023-12-28T03:57:40;3.13;;;1.67;;
18449;SDS011;9354;50.194;7.690;2023-12-28T04:00:08;3.93;;;1.90;;
18449;SDS011;9354;50.194;7.690;2023-12-28T04:02:36;3.07;;;1.80;;
18449;SDS011;9354;50.194;7.690;2023-12-28T04:05:03;5.23;;;1.80;;
18449;SDS011;9354;50.194;7.690;2023-12-28T04:07:34;4.27;;;2.10;;
18449;SDS011;9354;50.194;7.690;2023-12-28T04:10:01;3.40;;;2.00;;
18449;SDS011;9354;50.194;7.690;2023-12-28T04:12:28;3.33;;;1.73;;
18449;SDS011;9354;50.194;7.690;2023-12-28T04:14:56;1.63;;;1.47;;
18449;SDS011;9354;50.194;7.690;2023-12-28T04:17:23;5.10;;;1.90;;
18449;SDS011;9354;50.194;7.690;2023-12-28T04:19:51;4.27;;;1.93;;
18449;SDS011;9354;50.194;7.690;2023-12-28T04:22:18;3.10;;;1.63;;
18449;SDS011;9354;50.194;7.690;2023-12-28T04:24:47;4.60;;;1.67;;
18449;SDS011;9354;50.194;7.690;2023-12-28T04:27:14;2.73;;;1.60;;
18449;SDS011;9354;50.194;7.690;2023-12-28T04:29:42;5.20;;;1.97;;
18449;SDS011;9354;50.194;7.690;2023-12-28T04:32:09;3.13;;;1.57;;
18449;SDS011;9354;50.194;7.690;2023-12-28T04:34:36;5.27;;;1.90;;
18449;SDS011;9354;50.194;7.690;2023-12-28T04:37:04;3.57;;;1.60;;
18449;SDS011;9354;50.194;7.690;2023-12-28T04:39:31;5.10;;;1.43;;
18449;SDS011;9354;50.194;7.690;2023-12-28T04:42:00;4.97;;;1.90;;
18449;SDS011;9354;50.194;7.690;2023-12-28T04:44:28;6.00;;;2.50;;
18449;SDS011;9354;50.194;7.690;2023-12-28T04:46:55;3.90;;;2.23;;
18449;SDS011;9354;50.194;7.690;2023-12-28T04:49:23;5.30;;;2.30;;
18449;SDS011;9354;50.194;7.690;2023-12-28T04:51:51;4.50;;;2.27;;
18449;SDS011;9354;50.194;7.690;2023-12-28T04:54:18;7.97;;;3.60;;
18449;SDS011;9354;50.194;7.690;2023-12-28T04:56:46;4.40;;;2.30;;
18449;SDS011;9354;50.194;7.690;2023-12-28T04:59:14;4.63;;;2.10;;
18449;SDS011;9354;50.194;7.690;2023-12-28T05:01:42;5.20;;;1.97;;
18449;SDS011;9354;50.194;7.690;2023-12-28T05:04:09;3.90;;;1.90;;
18449;SDS011;9354;50.194;7.690;2023-12-28T05:06:37;5.67;;;2.20;;
18449;SDS011;9354;50.194;7.690;2023-12-28T05:09:05;3.60;;;2.00;;
18449;SDS011;9354;50.194;7.690;2023-12-28T05:11:32;4.57;;;2.20;;
18449;SDS011;9354;50.194;7.690;2023-12-28T05:13:59;3.77;;;2.00;;
18449;SDS011;9354;50.194;7.690;2023-12-28T05:16:28;3.73;;;1.50;;
18449;SDS011;9354;50.194;7.690;2023-12-28T05:18:56;3.53;;;1.87;;
18449;SDS011;9354;50.194;7.690;2023-12-28T05:21:23;4.23;;;2.03;;
18449;SDS011;9354;50.194;7.690;2023-12-28T05:23:50;3.53;;;1.73;;
18449;SDS011;9354;50.194;7.690;2023-12-28T05:26:18;5.73;;;2.00;;
18449;SDS011;9354;50.194;7.690;2023-12-28T05:28:45;3.63;;;1.73;;
18449;SDS011;9354;50.194;7.690;2023-12-28T05:31:12;4.00;;;1.90;;
18449;SDS011;9354;50.194;7.690;2023-12-28T05:33:41;3.90;;;1.80;;
18449;SDS011;9354;50.194;7.690;2023-12-28T05:36:08;3.60;;;1.90;;
18449;SDS011;9354;50.194;7.690;2023-12-28T05:38:36;3.40;;;1.60;;
18449;SDS011;9354;50.194;7.690;2023-12-28T05:41:03;2.63;;;1.67;;
18449;SDS011;9354;50.194;7.690;2023-12-28T05:43:31;3.10;;;1.60;;
18449;SDS011;9354;50.194;7.690;2023-12-28T05:45:58;3.40;;;2.20;;
18449;SDS011;9354;50.194;7.690;2023-12-28T05:48:26;3.00;;;1.83;;
18449;SDS011;9354;50.194;7.690;2023-12-28T05:50:54;4.57;;;1.93;;
18449;SDS011;9354;50.194;7.690;2023-12-28T05:53:23;4.20;;;1.90;;
18449;SDS011;9354;50.194;7.690;2023-12-28T05:55:52;4.17;;;1.90;;
18449;SDS011;9354;50.194;7.690;2023-12-28T05:58:19;4.30;;;2.10;;
18449;SDS011;9354;50.194;7.690;2023-12-28T06:00:47;4.37;;;2.00;;
18449;SDS011;9354;50.194;7.690;2023-12-28T06:03:14;3.43;;;1.60;;
18449;SDS011;9354;50.194;7.690;2023-12-28T06:05:42;7.77;;;2.10;;
18449;SDS011;9354;50.194;7.690;2023-12-28T06:08:10;4.07;;;1.80;;
18449;SDS011;9354;50.194;7.690;2023-12-28T06:10:38;4.50;;;1.90;;
18449;SDS011;9354;50.194;7.690;2023-12-28T06:13:06;5.37;;;2.43;;
18449;SDS011;9354;50.194;7.690;2023-12-28T06:15:33;3.20;;;2.03;;
18449;SDS011;9354;50.194;7.690;2023-12-28T06:18:00;3.43;;;2.10;;
18449;SDS011;9354;50.194;7.690;2023-12-28T06:20:29;8.10;;;2.40;;
18449;SDS011;9354;50.194;7.690;2023-12-28T06:22:57;5.53;;;2.00;;
18449;SDS011;9354;50.194;7.690;2023-12-28T06:25:26;4.10;;;2.07;;
18449;SDS011;9354;50.194;7.690;2023-12-28T06:27:53;4.93;;;1.90;;
18449;SDS011;9354;50.194;7.690;2023-12-28T06:30:20;3.90;;;2.10;;
18449;SDS011;9354;50.194;7.690;2023-12-28T06:32:48;5.37;;;2.10;;
18449;SDS011;9354;50.194;7.690;2023-12-28T06:35:15;3.73;;;1.73;;
18449;SDS011;9354;50.194;7.690;2023-12-28T06:37:43;4.80;;;1.80;;
18449;SDS011;9354;50.194;7.690;2023-12-28T06:40:11;5.10;;;1.90;;
18449;SDS011;9354;50.194;7.690;2023-12-28T06:42:40;6.07;;;2.00;;
18449;SDS011;9354;50.194;7.690;2023-12-28T06:45:09;3.83;;;1.80;;
18449;SDS011;9354;50.194;7.690;2023-12-28T06:47:36;2.73;;;1.70;;
18449;SDS011;9354;50.194;7.690;2023-12-28T06:50:04;3.73;;;1.87;;
18449;SDS011;9354;50.194;7.690;2023-12-28T06:52:32;6.30;;;2.17;;
18449;SDS011;9354;50.194;7.690;2023-12-28T06:55:00;4.37;;;1.80;;
18449;SDS011;9354;50.194;7.690;2023-12-28T06:57:28;3.77;;;1.70;;
18449;SDS011;9354;50.194;7.690;2023-12-28T06:59:56;4.20;;;1.70;;
18449;SDS011;9354;50.194;7.690;2023-12-28T07:02:27;4.63;;;1.83;;
18449;SDS011;9354;50.194;7.690;2023-12-28T07:04:54;2.20;;;1.30;;
18449;SDS011;9354;50.194;7.690;2023-12-28T07:07:22;7.43;;;1.77;;
18449;SDS011;9354;50.194;7.690;2023-12-28T07:09:49;5.80;;;2.10;;
18449;SDS011;9354;50.194;7.690;2023-12-28T07:12:17;4.80;;;1.50;;
18449;SDS011;9354;50.194;7.690;2023-12-28T07:14:45;4.17;;;1.60;;
18449;SDS011;9354;50.194;7.690;2023-12-28T07:17:14;2.07;;;1.40;;
18449;SDS011;9354;50.194;7.690;2023-12-28T07:19:42;3.73;;;1.40;;
18449;SDS011;9354;50.194;7.690;2023-12-28T07:22:10;5.20;;;1.57;;
18449;SDS011;9354;50.194;7.690;2023-12-28T07:24:37;3.87;;;1.67;;
18449;SDS011;9354;50.194;7.690;2023-12-28T07:27:05;5.17;;;1.97;;
18449;SDS011;9354;50.194;7.690;2023-12-28T07:29:33;2.53;;;1.63;;
18449;SDS011;9354;50.194;7.690;2023-12-28T07:32:00;3.93;;;1.40;;
18449;SDS011;9354;50.194;7.690;2023-12-28T07:34:29;2.57;;;1.63;;
18449;SDS011;9354;50.194;7.690;2023-12-28T07:36:56;5.77;;;2.17;;
18449;SDS011;9354;50.194;7.690;2023-12-28T07:39:24;3.53;;;1.60;;
18449;SDS011;9354;50.194;7.690;2023-12-28T07:41:51;2.63;;;1.50;;
18449;SDS011;9354;50.194;7.690;2023-12-28T07:44:18;3.57;;;1.50;;
18449;SDS011;9354;50.194;7.690;2023-12-28T07:46:46;2.70;;;1.30;;
18449;SDS011;9354;50.194;7.690;2023-12-28T07:49:13;5.10;;;1.73;;
18449;SDS011;9354;50.194;7.690;2023-12-28T07:51:42;2.90;;;1.53;;
18449;SDS011;9354;50.194;7.690;2023-12-28T07:54:09;5.17;;;2.00;;
18449;SDS011;9354;50.194;7.690;2023-12-28T07:56:37;3.63;;;1.60;;
18449;SDS011;9354;50.194;7.690;2023-12-28T07:59:05;3.87;;;1.50;;
18449;SDS011;9354;50.194;7.690;2023-12-28T08:01:34;4.97;;;1.50;;
18449;SDS011;9354;50.194;7.690;2023-12-28T08:04:02;3.60;;;1.47;;
18449;SDS011;9354;50.194;7.690;2023-12-28T08:06:29;6.33;;;1.70;;
18449;SDS011;9354;50.194;7.690;2023-12-28T08:08:59;1.90;;;1.20;;
18449;SDS011;9354;50.194;7.690;2023-12-28T08:11:27;2.87;;;1.20;;
18449;SDS011;9354;50.194;7.690;2023-12-28T08:13:54;5.70;;;1.30;;
18449;SDS011;9354;50.194;7.690;2023-12-28T08:16:22;5.63;;;1.40;;
18449;SDS011;9354;50.194;7.690;2023-12-28T08:18:49;3.10;;;1.47;;
18449;SDS011;9354;50.194;7.690;2023-12-28T08:21:16;4.00;;;1.10;;
18449;SDS011;9354;50.194;7.690;2023-12-28T08:23:44;3.17;;;1.23;;
18449;SDS011;9354;50.194;7.690;2023-12-28T08:26:13;3.67;;;1.30;;
18449;SDS011;9354;50.194;7.690;2023-12-28T08:28:40;4.43;;;1.40;;
18449;SDS011;9354;50.194;7.690;2023-12-28T08:31:08;3.30;;;1.17;;
18449;SDS011;9354;50.194;7.690;2023-12-28T08:33:35;5.23;;;1.43;;
18449;SDS011;9354;50.194;7.690;2023-12-28T08:36:04;3.77;;;1.30;;
18449;SDS011;9354;50.194;7.690;2023-12-28T08:38:32;4.20;;;1.30;;
18449;SDS011;9354;50.194;7.690;2023-12-28T08:41:00;2.00;;;1.20;;
18449;SDS011;9354;50.194;7.690;2023-12-28T08:43:30;5.27;;;1.40;;
18449;SDS011;9354;50.194;7.690;2023-12-28T08:45:57;2.93;;;1.47;;
18449;SDS011;9354;50.194;7.690;2023-12-28T08:48:25;4.10;;;1.50;;
18449;SDS011;9354;50.194;7.690;2023-12-28T08:50:52;4.10;;;1.30;;
18449;SDS011;9354;50.194;7.690;2023-12-28T08:53:19;2.27;;;1.17;;
18449;SDS011;9354;50.194;7.690;2023-12-28T08:55:47;5.27;;;1.10;;
18449;SDS011;9354;50.194;7.690;2023-12-28T08:58:14;2.23;;;1.27;;
18449;SDS011;9354;50.194;7.690;2023-12-28T09:00:43;2.07;;;1.10;;
18449;SDS011;9354;50.194;7.690;2023-12-28T09:03:12;5.23;;;1.47;;
18449;SDS011;9354;50.194;7.690;2023-12-28T09:05:39;4.40;;;1.20;;
18449;SDS011;9354;50.194;7.690;2023-12-28T09:08:07;5.70;;;1.37;;
18449;SDS011;9354;50.194;7.690;2023-12-28T09:10:34;4.27;;;1.23;;
18449;SDS011;9354;50.194;7.690;2023-12-28T09:13:03;3.60;;;1.30;;
18449;SDS011;9354;50.194;7.690;2023-12-28T09:15:31;2.40;;;1.40;;
18449;SDS011;9354;50.194;7.690;2023-12-28T09:18:00;3.20;;;1.30;;
18449;SDS011;9354;50.194;7.690;2023-12-28T09:20:27;4.10;;;1.30;;
18449;SDS011;9354;50.194;7.690;2023-12-28T09:22:54;3.53;;;1.20;;
18449;SDS011;9354;50.194;7.690;2023-12-28T09:25:22;3.63;;;1.10;;
18449;SDS011;9354;50.194;7.690;2023-12-28T09:27:49;2.40;;;1.07;;
18449;SDS011;9354;50.194;7.690;2023-12-28T09:30:17;6.27;;;1.30;;
18449;SDS011;9354;50.194;7.690;2023-12-28T09:32:44;3.07;;;0.97;;
18449;SDS011;9354;50.194;7.690;2023-12-28T09:35:13;5.20;;;1.97;;
18449;SDS011;9354;50.194;7.690;2023-12-28T09:37:41;2.17;;;0.97;;
18449;SDS011;9354;50.194;7.690;2023-12-28T09:40:08;2.10;;;1.10;;
18449;SDS011;9354;50.194;7.690;2023-12-28T09:42:46;2.50;;;1.00;;
18449;SDS011;9354;50.194;7.690;2023-12-28T09:45:20;3.37;;;1.30;;
18449;SDS011;9354;50.194;7.690;2023-12-28T09:47:47;2.63;;;1.10;;
18449;SDS011;9354;50.194;7.690;2023-12-28T09:50:18;3.80;;;1.03;;
18449;SDS011;9354;50.194;7.690;2023-12-28T09:52:45;2.33;;;1.07;;
18449;SDS011;9354;50.194;7.690;2023-12-28T09:55:12;2.93;;;1.07;;
18449;SDS011;9354;50.194;7.690;2023-12-28T09:57:40;3.10;;;1.17;;
18449;SDS011;9354;50.194;7.690;2023-12-28T10:00:08;4.20;;;1.20;;
18449;SDS011;9354;50.194;7.690;2023-12-28T10:02:37;3.90;;;1.10;;
18449;SDS011;9354;50.194;7.690;2023-12-28T10:05:06;4.40;;;1.10;;
18449;SDS011;9354;50.194;7.690;2023-12-28T10:07:41;4.10;;;1.10;;
18449;SDS011;9354;50.194;7.690;2023-12-28T10:10:09;5.40;;;1.30;;
18449;SDS011;9354;50.194;7.690;2023-12-28T10:12:37;7.23;;;1.20;;
18449;SDS011;9354;50.194;7.690;2023-12-28T10:15:05;3.07;;;0.97;;
18449;SDS011;9354;50.194;7.690;2023-12-28T10:17:33;4.57;;;1.40;;
18449;SDS011;9354;50.194;7.690;2023-12-28T10:20:01;5.13;;;1.00;;
18449;SDS011;9354;50.194;7.690;2023-12-28T10:22:30;2.37;;;0.80;;
18449;SDS011;9354;50.194;7.690;2023-12-28T10:25:01;4.57;;;1.17;;
18449;SDS011;9354;50.194;7.690;2023-12-28T10:27:29;5.07;;;0.83;;
18449;SDS011;9354;50.194;7.690;2023-12-28T10:29:56;2.90;;;0.80;;
18449;SDS011;9354;50.194;7.690;2023-12-28T10:32:24;5.53;;;1.40;;
18449;SDS011;9354;50.194;7.690;2023-12-28T10:34:51;2.20;;;0.90;;
18449;SDS011;9354;50.194;7.690;2023-12-28T10:37:20;5.20;;;1.17;;
18449;SDS011;9354;50.194;7.690;2023-12-28T10:39:48;5.03;;;1.20;;
18449;SDS011;9354;50.194;7.690;2023-12-28T10:42:20;5.07;;;1.13;;
18449;SDS011;9354;50.194;7.690;2023-12-28T10:44:55;2.30;;;0.80;;
18449;SDS011;9354;50.194;7.690;2023-12-28T10:47:28;4.37;;;1.17;;
18449;SDS011;9354;50.194;7.690;2023-12-28T10:50:00;5.37;;;1.30;;
18449;SDS011;9354;50.194;7.690;2023-12-28T10:52:32;3.27;;;1.17;;
18449;SDS011;9354;50.194;7.690;2023-12-28T10:55:05;8.03;;;1.00;;
18449;SDS011;9354;50.194;7.690;2023-12-28T10:57:58;3.93;;;1.00;;
18449;SDS011;9354;50.194;7.690;2023-12-28T11:00:30;4.93;;;1.00;;
18449;SDS011;9354;50.194;7.690;2023-12-28T11:03:03;6.20;;;1.00;;
18449;SDS011;9354;50.194;7.690;2023-12-28T11:05:32;4.07;;;1.40;;
18449;SDS011;9354;50.194;7.690;2023-12-28T11:08:00;5.77;;;1.13;;
18449;SDS011;9354;50.194;7.690;2023-12-28T11:10:29;2.43;;;1.20;;
18449;SDS011;9354;50.194;7.690;2023-12-28T11:13:00;6.20;;;1.10;;
18449;SDS011;9354;50.194;7.690;2023-12-28T11:15:28;5.47;;;1.10;;
18449;SDS011;9354;50.194;7.690;2023-12-28T11:17:57;4.23;;;0.97;;
18449;SDS011;9354;50.194;7.690;2023-12-28T11:20:25;4.57;;;0.80;;
18449;SDS011;9354;50.194;7.690;2023-12-28T11:22:54;3.60;;;0.87;;
18449;SDS011;9354;50.194;7.690;2023-12-28T11:25:23;5.37;;;1.10;;
18449;SDS011;9354;50.194;7.690;2023-12-28T11:27:57;3.93;;;0.80;;
18449;SDS011;9354;50.194;7.690;2023-12-28T11:30:27;5.13;;;1.03;;
18449;SDS011;9354;50.194;7.690;2023-12-28T11:32:55;4.30;;;0.90;;
18449;SDS011;9354;50.194;7.690;2023-12-28T11:35:23;4.33;;;0.80;;
18449;SDS011;9354;50.194;7.690;2023-12-28T11:37:58;6.40;;;1.07;;
18449;SDS011;9354;50.194;7.690;2023-12-28T11:40:29;4.20;;;0.90;;
18449;SDS011;9354;50.194;7.690;2023-12-28T11:42:56;5.10;;;1.13;;
18449;SDS011;9354;50.194;7.690;2023-12-28T11:45:24;4.43;;;0.83;;
18449;SDS011;9354;50.194;7.690;2023-12-28T11:48:02;2.67;;;0.77;;
18449;SDS011;9354;50.194;7.690;2023-12-28T11:50:30;4.27;;;1.10;;
18449;SDS011;9354;50.194;7.690;2023-12-28T11:52:58;6.87;;;1.30;;
18449;SDS011;9354;50.194;7.690;2023-12-28T11:55:25;5.67;;;1.17;;
18449;SDS011;9354;50.194;7.690;2023-12-28T11:57:52;3.43;;;1.17;;
18449;SDS011;9354;50.194;7.690;2023-12-28T12:00:20;4.90;;;1.00;;
18449;SDS011;9354;50.194;7.690;2023-12-28T12:02:51;4.73;;;0.90;;
18449;SDS011;9354;50.194;7.690;2023-12-28T12:05:19;2.93;;;0.70;;
18449;SDS011;9354;50.194;7.690;2023-12-28T12:07:48;4.10;;;1.00;;
18449;SDS011;9354;50.194;7.690;2023-12-28T12:10:16;4.10;;;0.83;;
18449;SDS011;9354;50.194;7.690;2023-12-28T12:12:43;3.87;;;0.80;;
18449;SDS011;9354;50.194;7.690;2023-12-28T12:15:11;5.37;;;1.17;;
18449;SDS011;9354;50.194;7.690;2023-12-28T12:17:38;4.43;;;1.33;;
18449;SDS011;9354;50.194;7.690;2023-12-28T12:20:06;6.50;;;1.13;;
18449;SDS011;9354;50.194;7.690;2023-12-28T12:22:37;5.20;;;1.00;;
18449;SDS011;9354;50.194;7.690;2023-12-28T12:25:05;3.87;;;1.07;;
18449;SDS011;9354;50.194;7.690;2023-12-28T12:27:34;4.63;;;1.00;;
18449;SDS011;9354;50.194;7.690;2023-12-28T12:30:02;9.10;;;1.20;;
18449;SDS011;9354;50.194;7.690;2023-12-28T12:32:30;1.83;;;0.80;;
18449;SDS011;9354;50.194;7.690;2023-12-28T12:34:58;6.33;;;0.90;;
18449;SDS011;9354;50.194;7.690;2023-12-28T12:37:26;4.00;;;1.30;;
18449;SDS011;9354;50.194;7.690;2023-12-28T12:39:54;3.43;;;1.00;;
18449;SDS011;9354;50.194;7.690;2023-12-28T12:42:22;4.63;;;0.97;;
18449;SDS011;9354;50.194;7.690;2023-12-28T12:44:49;3.47;;;1.10;;
18449;SDS011;9354;50.194;7.690;2023-12-28T12:47:17;4.53;;;1.90;;
18449;SDS011;9354;50.194;7.690;2023-12-28T12:49:44;4.90;;;1.23;;
18449;SDS011;9354;50.194;7.690;2023-12-28T12:52:12;3.40;;;0.87;;
18449;SDS011;9354;50.194;7.690;2023-12-28T12:54:39;5.90;;;1.23;;
18449;SDS011;9354;50.194;7.690;2023-12-28T12:57:08;3.10;;;1.00;;
18449;SDS011;9354;50.194;7.690;2023-12-28T12:59:36;3.33;;;1.20;;
18449;SDS011;9354;50.194;7.690;2023-12-28T13:02:04;6.60;;;1.43;;
18449;SDS011;9354;50.194;7.690;2023-12-28T13:04:34;6.57;;;1.23;;
18449;SDS011;9354;50.194;7.690;2023-12-28T13:07:01;5.00;;;1.30;;
18449;SDS011;9354;50.194;7.690;2023-12-28T13:09:29;2.87;;;1.00;;
18449;SDS011;9354;50.194;7.690;2023-12-28T13:11:56;6.70;;;1.10;;
18449;SDS011;9354;50.194;7.690;2023-12-28T13:14:25;4.87;;;1.13;;
18449;SDS011;9354;50.194;7.690;2023-12-28T13:16:53;4.63;;;1.20;;
18449;SDS011;9354;50.194;7.690;2023-12-28T13:19:21;4.07;;;0.77;;
18449;SDS011;9354;50.194;7.690;2023-12-28T13:21:48;9.10;;;3.90;;
18449;SDS011;9354;50.194;7.690;2023-12-28T13:24:15;5.57;;;1.40;;
18449;SDS011;9354;50.194;7.690;2023-12-28T13:26:43;7.67;;;1.93;;
18449;SDS011;9354;50.194;7.690;2023-12-28T13:29:11;10.03;;;3.03;;
18449;SDS011;9354;50.194;7.690;2023-12-28T13:31:40;5.37;;;1.20;;
18449;SDS011;9354;50.194;7.690;2023-12-28T13:34:08;4.13;;;1.13;;
18449;SDS011;9354;50.194;7.690;2023-12-28T13:36:35;2.13;;;0.80;;
18449;SDS011;9354;50.194;7.690;2023-12-28T13:39:03;4.80;;;0.70;;
18449;SDS011;9354;50.194;7.690;2023-12-28T13:41:30;2.87;;;1.00;;
18449;SDS011;9354;50.194;7.690;2023-12-28T13:43:58;3.30;;;1.00;;
18449;SDS011;9354;50.194;7.690;2023-12-28T13:46:30;2.13;;;0.90;;
18449;SDS011;9354;50.194;7.690;2023-12-28T13:49:00;6.43;;;1.10;;
18449;SDS011;9354;50.194;7.690;2023-12-28T13:51:27;4.03;;;0.93;;
18449;SDS011;9354;50.194;7.690;2023-12-28T13:53:55;2.50;;;0.67;;
18449;SDS011;9354;50.194;7.690;2023-12-28T13:56:22;5.67;;;1.40;;
18449;SDS011;9354;50.194;7.690;2023-12-28T13:58:49;3.10;;;1.00;;
18449;SDS011;9354;50.194;7.690;2023-12-28T14:01:17;2.83;;;0.93;;
18449;SDS011;9354;50.194;7.690;2023-12-28T14:03:44;1.80;;;0.70;;
18449;SDS011;9354;50.194;7.690;2023-12-28T14:06:15;2.80;;;0.87;;
18449;SDS011;9354;50.194;7.690;2023-12-28T14:08:43;3.20;;;0.90;;
18449;SDS011;9354;50.194;7.690;2023-12-28T14:11:10;3.10;;;1.10;;
18449;SDS011;9354;50.194;7.690;2023-12-28T14:13:38;3.83;;;0.90;;
18449;SDS011;9354;50.194;7.690;2023-12-28T14:16:05;7.23;;;1.07;;
18449;SDS011;9354;50.194;7.690;2023-12-28T14:18:34;3.77;;;1.10;;
18449;SDS011;9354;50.194;7.690;2023-12-28T14:21:01;2.17;;;0.93;;
18449;SDS011;9354;50.194;7.690;2023-12-28T14:23:31;3.43;;;0.90;;
18449;SDS011;9354;50.194;7.690;2023-12-28T14:25:58;3.67;;;0.70;;
18449;SDS011;9354;50.194;7.690;2023-12-28T14:28:26;3.47;;;0.80;;
18449;SDS011;9354;50.194;7.690;2023-12-28T14:30:57;3.13;;;0.83;;
18449;SDS011;9354;50.194;7.690;2023-12-28T14:33:25;2.10;;;0.87;;
18449;SDS011;9354;50.194;7.690;2023-12-28T14:35:53;3.93;;;0.83;;
18449;SDS011;9354;50.194;7.690;2023-12-28T14:38:21;4.20;;;0.87;;
18449;SDS011;9354;50.194;7.690;2023-12-28T14:40:50;5.90;;;0.97;;
18449;SDS011;9354;50.194;7.690;2023-12-28T14:43:18;2.07;;;0.73;;
18449;SDS011;9354;50.194;7.690;2023-12-28T14:45:46;3.03;;;0.60;;
18449;SDS011;9354;50.194;7.690;2023-12-28T14:48:14;2.13;;;0.87;;
18449;SDS011;9354;50.194;7.690;2023-12-28T14:50:41;3.43;;;0.90;;
18449;SDS011;9354;50.194;7.690;2023-12-28T14:53:08;1.37;;;0.60;;
18449;SDS011;9354;50.194;7.690;2023-12-28T14:55:36;4.67;;;1.03;;
18449;SDS011;9354;50.194;7.690;2023-12-28T14:58:04;3.80;;;0.90;;
18449;SDS011;9354;50.194;7.690;2023-12-28T15:00:32;1.80;;;0.67;;
18449;SDS011;9354;50.194;7.690;2023-12-28T15:03:00;3.37;;;0.60;;
18449;SDS011;9354;50.194;7.690;2023-12-28T15:05:28;3.10;;;0.80;;